sensor_id;sensor_type;location;lat;lon;timestamp;P1;durP1;ratioP1;P2;durP2;ratioP2
72115;SDS011;59991;52.140;5.428;2023-06-10T00:00:15;10.85;;;4.78;;
72115;SDS011;59991;52.140;5.428;2023-06-10T00:00:47;10.77;;;5.03;;
72115;SDS011;59991;52.140;5.428;2023-06-10T00:01:18;6.22;;;5.20;;
72115;SDS011;59991;52.140;5.428;2023-06-10T00:01:50;7.50;;;5.60;;
72115;SDS011;59991;52.140;5.428;2023-06-10T00:02:21;9.82;;;5.28;;
72115;SDS011;59991;52.140;5.428;2023-06-10T00:02:53;6.45;;;5.60;;
72115;SDS011;59991;52.140;5.428;2023-06-10T00:03:24;6.25;;;4.75;;
72115;SDS011;59991;52.140;5.428;2023-06-10T00:03:56;6.50;;;4.78;;
72115;SDS011;59991;52.140;5.428;2023-06-10T00:04:28;7.57;;;5.95;;
72115;SDS011;59991;52.140;5.428;2023-06-10T00:05:00;6.95;;;4.88;;
72115;SDS011;59991;52.140;5.428;2023-06-10T00:05:31;8.75;;;5.18;;
72115;SDS011;59991;52.140;5.428;2023-06-10T00:06:03;7.70;;;5.23;;
72115;SDS011;59991;52.140;5.428;2023-06-10T00:06:34;6.85;;;4.72;;
72115;SDS011;59991;52.140;5.428;2023-06-10T00:07:09;6.93;;;4.60;;
72115;SDS011;59991;52.140;5.428;2023-06-10T00:07:41;6.07;;;4.88;;
72115;SDS011;59991;52.140;5.428;2023-06-10T00:08:12;9.05;;;5.15;;
72115;SDS011;59991;52.140;5.428;2023-06-10T00:08:47;8.68;;;4.70;;
72115;SDS011;59991;52.140;5.428;2023-06-10T00:09:19;11.77;;;5.32;;
72115;SDS011;59991;52.140;5.428;2023-06-10T00:09:52;6.75;;;5.70;;
72115;SDS011;59991;52.140;5.428;2023-06-10T00:10:24;8.13;;;5.50;;
72115;SDS011;59991;52.140;5.428;2023-06-10T00:10:55;8.73;;;5.20;;
72115;SDS011;59991;52.140;5.428;2023-06-10T00:11:26;11.00;;;5.97;;
72115;SDS011;59991;52.140;5.428;2023-06-10T00:11:59;5.10;;;4.60;;
72115;SDS011;59991;52.140;5.428;2023-06-10T00:12:31;6.15;;;4.72;;
72115;SDS011;59991;52.140;5.428;2023-06-10T00:13:08;7.20;;;5.50;;
72115;SDS011;59991;52.140;5.428;2023-06-10T00:13:40;5.70;;;4.97;;
72115;SDS011;59991;52.140;5.428;2023-06-10T00:14:12;7.60;;;4.93;;
72115;SDS011;59991;52.140;5.428;2023-06-10T00:14:43;5.07;;;4.32;;
72115;SDS011;59991;52.140;5.428;2023-06-10T00:15:15;8.07;;;5.63;;
72115;SDS011;59991;52.140;5.428;2023-06-10T00:15:46;6.22;;;4.10;;
72115;SDS011;59991;52.140;5.428;2023-06-10T00:16:18;6.28;;;4.53;;
72115;SDS011;59991;52.140;5.428;2023-06-10T00:16:49;6.40;;;4.93;;
72115;SDS011;59991;52.140;5.428;2023-06-10T00:17:23;5.10;;;4.60;;
72115;SDS011;59991;52.140;5.428;2023-06-10T00:17:55;6.55;;;4.47;;
72115;SDS011;59991;52.140;5.428;2023-06-10T00:18:26;7.40;;;5.07;;
72115;SDS011;59991;52.140;5.428;2023-06-10T00:18:59;7.25;;;4.93;;
72115;SDS011;59991;52.140;5.428;2023-06-10T00:19:33;5.63;;;4.80;;
72115;SDS011;59991;52.140;5.428;2023-06-10T00:20:07;5.57;;;4.75;;
72115;SDS011;59991;52.140;5.428;2023-06-10T00:20:43;7.32;;;5.68;;
72115;SDS011;59991;52.140;5.428;2023-06-10T00:21:14;5.43;;;4.90;;
72115;SDS011;59991;52.140;5.428;2023-06-10T00:21:46;4.90;;;4.40;;
72115;SDS011;59991;52.140;5.428;2023-06-10T00:22:17;6.70;;;4.80;;
72115;SDS011;59991;52.140;5.428;2023-06-10T00:22:49;8.10;;;5.15;;
72115;SDS011;59991;52.140;5.428;2023-06-10T00:23:21;6.47;;;4.72;;
72115;SDS011;59991;52.140;5.428;2023-06-10T00:23:54;6.32;;;5.20;;
72115;SDS011;59991;52.140;5.428;2023-06-10T00:24:26;8.20;;;5.65;;
72115;SDS011;59991;52.140;5.428;2023-06-10T00:24:58;8.43;;;4.30;;
72115;SDS011;59991;52.140;5.428;2023-06-10T00:25:29;5.05;;;3.97;;
72115;SDS011;59991;52.140;5.428;2023-06-10T00:26:01;7.20;;;5.30;;
72115;SDS011;59991;52.140;5.428;2023-06-10T00:26:32;5.68;;;4.55;;
72115;SDS011;59991;52.140;5.428;2023-06-10T00:27:04;5.15;;;4.57;;
72115;SDS011;59991;52.140;5.428;2023-06-10T00:27:38;6.40;;;5.53;;
72115;SDS011;59991;52.140;5.428;2023-06-10T00:28:09;6.35;;;4.60;;
72115;SDS011;59991;52.140;5.428;2023-06-10T00:28:40;5.63;;;4.20;;
72115;SDS011;59991;52.140;5.428;2023-06-10T00:29:12;6.32;;;5.30;;
72115;SDS011;59991;52.140;5.428;2023-06-10T00:29:44;7.05;;;4.72;;
72115;SDS011;59991;52.140;5.428;2023-06-10T00:30:16;5.45;;;4.88;;
72115;SDS011;59991;52.140;5.428;2023-06-10T00:30:47;6.80;;;5.15;;
72115;SDS011;59991;52.140;5.428;2023-06-10T00:31:19;7.47;;;5.00;;
72115;SDS011;59991;52.140;5.428;2023-06-10T00:31:50;5.90;;;5.18;;
72115;SDS011;59991;52.140;5.428;2023-06-10T00:32:22;5.03;;;4.53;;
72115;SDS011;59991;52.140;5.428;2023-06-10T00:32:53;6.70;;;4.73;;
72115;SDS011;59991;52.140;5.428;2023-06-10T00:33:25;5.78;;;4.75;;
72115;SDS011;59991;52.140;5.428;2023-06-10T00:33:56;7.75;;;4.88;;
72115;SDS011;59991;52.140;5.428;2023-06-10T00:34:29;6.57;;;5.35;;
72115;SDS011;59991;52.140;5.428;2023-06-10T00:35:01;7.18;;;4.88;;
72115;SDS011;59991;52.140;5.428;2023-06-10T00:35:34;8.10;;;5.53;;
72115;SDS011;59991;52.140;5.428;2023-06-10T00:36:05;8.93;;;5.30;;
72115;SDS011;59991;52.140;5.428;2023-06-10T00:36:37;7.97;;;4.88;;
72115;SDS011;59991;52.140;5.428;2023-06-10T00:37:08;7.72;;;5.22;;
72115;SDS011;59991;52.140;5.428;2023-06-10T00:37:40;8.15;;;5.30;;
72115;SDS011;59991;52.140;5.428;2023-06-10T00:38:12;7.97;;;4.87;;
72115;SDS011;59991;52.140;5.428;2023-06-10T00:38:45;7.63;;;5.03;;
72115;SDS011;59991;52.140;5.428;2023-06-10T00:39:16;8.05;;;5.00;;
72115;SDS011;59991;52.140;5.428;2023-06-10T00:39:47;7.00;;;5.50;;
72115;SDS011;59991;52.140;5.428;2023-06-10T00:40:19;7.53;;;4.95;;
72115;SDS011;59991;52.140;5.428;2023-06-10T00:40:50;7.43;;;5.45;;
72115;SDS011;59991;52.140;5.428;2023-06-10T00:41:22;5.60;;;4.63;;
72115;SDS011;59991;52.140;5.428;2023-06-10T00:41:54;7.82;;;4.90;;
72115;SDS011;59991;52.140;5.428;2023-06-10T00:42:25;8.77;;;5.10;;
72115;SDS011;59991;52.140;5.428;2023-06-10T00:42:57;9.07;;;5.22;;
72115;SDS011;59991;52.140;5.428;2023-06-10T00:43:28;5.87;;;4.77;;
72115;SDS011;59991;52.140;5.428;2023-06-10T00:44:00;7.78;;;4.97;;
72115;SDS011;59991;52.140;5.428;2023-06-10T00:44:31;6.80;;;5.18;;
72115;SDS011;59991;52.140;5.428;2023-06-10T00:45:02;5.95;;;5.32;;
72115;SDS011;59991;52.140;5.428;2023-06-10T00:45:34;7.10;;;4.93;;
72115;SDS011;59991;52.140;5.428;2023-06-10T00:46:06;6.78;;;4.88;;
72115;SDS011;59991;52.140;5.428;2023-06-10T00:46:38;6.68;;;5.35;;
72115;SDS011;59991;52.140;5.428;2023-06-10T00:47:09;16.13;;;5.63;;
72115;SDS011;59991;52.140;5.428;2023-06-10T00:47:41;9.15;;;5.28;;
72115;SDS011;59991;52.140;5.428;2023-06-10T00:48:13;9.05;;;5.38;;
72115;SDS011;59991;52.140;5.428;2023-06-10T00:48:45;5.83;;;4.60;;
72115;SDS011;59991;52.140;5.428;2023-06-10T00:49:17;7.43;;;5.20;;
72115;SDS011;59991;52.140;5.428;2023-06-10T00:49:52;5.68;;;4.90;;
72115;SDS011;59991;52.140;5.428;2023-06-10T00:50:24;9.48;;;5.40;;
72115;SDS011;59991;52.140;5.428;2023-06-10T00:50:56;11.85;;;5.57;;
72115;SDS011;59991;52.140;5.428;2023-06-10T00:51:29;6.32;;;5.40;;
72115;SDS011;59991;52.140;5.428;2023-06-10T00:52:01;8.52;;;5.50;;
72115;SDS011;59991;52.140;5.428;2023-06-10T00:52:34;9.75;;;5.90;;
72115;SDS011;59991;52.140;5.428;2023-06-10T00:53:06;9.70;;;5.95;;
72115;SDS011;59991;52.140;5.428;2023-06-10T00:53:39;7.72;;;5.45;;
72115;SDS011;59991;52.140;5.428;2023-06-10T00:54:12;9.00;;;5.83;;
72115;SDS011;59991;52.140;5.428;2023-06-10T00:54:44;10.68;;;5.35;;
72115;SDS011;59991;52.140;5.428;2023-06-10T00:55:16;11.65;;;5.97;;
72115;SDS011;59991;52.140;5.428;2023-06-10T00:55:48;10.27;;;6.32;;
72115;SDS011;59991;52.140;5.428;2023-06-10T00:56:20;6.68;;;5.57;;
72115;SDS011;59991;52.140;5.428;2023-06-10T00:56:52;8.48;;;5.75;;
72115;SDS011;59991;52.140;5.428;2023-06-10T00:57:24;11.77;;;5.75;;
72115;SDS011;59991;52.140;5.428;2023-06-10T00:57:56;9.45;;;6.35;;
72115;SDS011;59991;52.140;5.428;2023-06-10T00:58:28;8.63;;;5.80;;
72115;SDS011;59991;52.140;5.428;2023-06-10T00:58:59;8.68;;;5.78;;
72115;SDS011;59991;52.140;5.428;2023-06-10T00:59:31;9.10;;;5.90;;
72115;SDS011;59991;52.140;5.428;2023-06-10T01:00:03;10.15;;;6.15;;
72115;SDS011;59991;52.140;5.428;2023-06-10T01:00:39;13.70;;;5.95;;
72115;SDS011;59991;52.140;5.428;2023-06-10T01:01:10;8.55;;;6.32;;
72115;SDS011;59991;52.140;5.428;2023-06-10T01:01:42;8.57;;;6.20;;
72115;SDS011;59991;52.140;5.428;2023-06-10T01:02:15;9.25;;;6.47;;
72115;SDS011;59991;52.140;5.428;2023-06-10T01:02:47;10.35;;;6.25;;
72115;SDS011;59991;52.140;5.428;2023-06-10T01:03:19;9.35;;;6.35;;
72115;SDS011;59991;52.140;5.428;2023-06-10T01:03:50;9.40;;;6.40;;
72115;SDS011;59991;52.140;5.428;2023-06-10T01:04:22;8.52;;;5.10;;
72115;SDS011;59991;52.140;5.428;2023-06-10T01:04:54;8.43;;;6.33;;
72115;SDS011;59991;52.140;5.428;2023-06-10T01:05:26;10.13;;;6.10;;
72115;SDS011;59991;52.140;5.428;2023-06-10T01:06:02;9.43;;;6.47;;
72115;SDS011;59991;52.140;5.428;2023-06-10T01:08:09;7.72;;;5.68;;
72115;SDS011;59991;52.140;5.428;2023-06-10T01:08:33;9.05;;;6.15;;
72115;SDS011;59991;52.140;5.428;2023-06-10T01:09:32;7.68;;;5.57;;
72115;SDS011;59991;52.140;5.428;2023-06-10T01:10:11;9.30;;;6.05;;
72115;SDS011;59991;52.140;5.428;2023-06-10T01:10:50;9.43;;;5.65;;
72115;SDS011;59991;52.140;5.428;2023-06-10T01:11:25;10.95;;;6.07;;
72115;SDS011;59991;52.140;5.428;2023-06-10T01:12:10;9.80;;;6.80;;
72115;SDS011;59991;52.140;5.428;2023-06-10T01:12:58;9.55;;;6.85;;
72115;SDS011;59991;52.140;5.428;2023-06-10T01:13:33;7.93;;;5.88;;
72115;SDS011;59991;52.140;5.428;2023-06-10T01:14:07;8.63;;;6.53;;
72115;SDS011;59991;52.140;5.428;2023-06-10T01:14:40;9.68;;;6.03;;
72115;SDS011;59991;52.140;5.428;2023-06-10T01:15:16;11.00;;;6.43;;
72115;SDS011;59991;52.140;5.428;2023-06-10T01:15:49;7.88;;;6.40;;
72115;SDS011;59991;52.140;5.428;2023-06-10T01:16:23;8.55;;;6.28;;
72115;SDS011;59991;52.140;5.428;2023-06-10T01:16:54;10.48;;;6.72;;
72115;SDS011;59991;52.140;5.428;2023-06-10T01:17:26;11.85;;;5.93;;
72115;SDS011;59991;52.140;5.428;2023-06-10T01:17:59;10.37;;;6.13;;
72115;SDS011;59991;52.140;5.428;2023-06-10T01:18:33;8.80;;;5.97;;
72115;SDS011;59991;52.140;5.428;2023-06-10T01:19:04;7.97;;;6.22;;
72115;SDS011;59991;52.140;5.428;2023-06-10T01:19:37;9.85;;;6.88;;
72115;SDS011;59991;52.140;5.428;2023-06-10T01:20:09;11.35;;;6.43;;
72115;SDS011;59991;52.140;5.428;2023-06-10T01:20:43;11.65;;;6.03;;
72115;SDS011;59991;52.140;5.428;2023-06-10T01:21:23;10.02;;;5.72;;
72115;SDS011;59991;52.140;5.428;2023-06-10T01:21:55;10.25;;;6.32;;
72115;SDS011;59991;52.140;5.428;2023-06-10T01:22:27;8.60;;;7.05;;
72115;SDS011;59991;52.140;5.428;2023-06-10T01:23:07;12.05;;;6.70;;
72115;SDS011;59991;52.140;5.428;2023-06-10T01:23:40;10.60;;;6.03;;
72115;SDS011;59991;52.140;5.428;2023-06-10T01:24:12;11.38;;;6.32;;
72115;SDS011;59991;52.140;5.428;2023-06-10T01:24:45;10.23;;;6.05;;
72115;SDS011;59991;52.140;5.428;2023-06-10T01:25:16;9.70;;;6.05;;
72115;SDS011;59991;52.140;5.428;2023-06-10T01:25:55;8.82;;;6.15;;
72115;SDS011;59991;52.140;5.428;2023-06-10T01:26:32;9.43;;;6.65;;
72115;SDS011;59991;52.140;5.428;2023-06-10T01:27:05;9.93;;;5.70;;
72115;SDS011;59991;52.140;5.428;2023-06-10T01:27:43;12.10;;;5.85;;
72115;SDS011;59991;52.140;5.428;2023-06-10T01:28:19;9.35;;;6.25;;
72115;SDS011;59991;52.140;5.428;2023-06-10T01:28:58;9.00;;;6.05;;
72115;SDS011;59991;52.140;5.428;2023-06-10T01:29:37;11.73;;;6.10;;
72115;SDS011;59991;52.140;5.428;2023-06-10T01:30:17;9.30;;;6.35;;
72115;SDS011;59991;52.140;5.428;2023-06-10T01:31:51;11.77;;;6.95;;
72115;SDS011;59991;52.140;5.428;2023-06-10T01:32:37;10.25;;;5.93;;
72115;SDS011;59991;52.140;5.428;2023-06-10T01:33:14;10.38;;;6.53;;
72115;SDS011;59991;52.140;5.428;2023-06-10T01:33:54;7.95;;;5.75;;
72115;SDS011;59991;52.140;5.428;2023-06-10T01:34:26;10.82;;;6.30;;
72115;SDS011;59991;52.140;5.428;2023-06-10T01:34:59;7.95;;;6.38;;
72115;SDS011;59991;52.140;5.428;2023-06-10T01:35:33;10.18;;;6.43;;
72115;SDS011;59991;52.140;5.428;2023-06-10T01:36:08;8.07;;;5.93;;
72115;SDS011;59991;52.140;5.428;2023-06-10T01:36:40;9.43;;;6.00;;
72115;SDS011;59991;52.140;5.428;2023-06-10T01:37:17;8.48;;;5.85;;
72115;SDS011;59991;52.140;5.428;2023-06-10T01:37:50;9.68;;;6.07;;
72115;SDS011;59991;52.140;5.428;2023-06-10T01:38:26;14.07;;;6.30;;
72115;SDS011;59991;52.140;5.428;2023-06-10T01:39:02;10.63;;;5.72;;
72115;SDS011;59991;52.140;5.428;2023-06-10T01:39:35;8.68;;;5.93;;
72115;SDS011;59991;52.140;5.428;2023-06-10T01:40:07;9.95;;;6.30;;
72115;SDS011;59991;52.140;5.428;2023-06-10T01:40:40;13.27;;;6.05;;
72115;SDS011;59991;52.140;5.428;2023-06-10T01:41:14;10.10;;;6.18;;
72115;SDS011;59991;52.140;5.428;2023-06-10T01:41:48;12.97;;;5.80;;
72115;SDS011;59991;52.140;5.428;2023-06-10T01:42:21;6.47;;;5.50;;
72115;SDS011;59991;52.140;5.428;2023-06-10T01:42:52;11.40;;;6.40;;
72115;SDS011;59991;52.140;5.428;2023-06-10T01:43:24;9.82;;;6.47;;
72115;SDS011;59991;52.140;5.428;2023-06-10T01:43:56;9.02;;;5.95;;
72115;SDS011;59991;52.140;5.428;2023-06-10T01:44:27;7.30;;;5.43;;
72115;SDS011;59991;52.140;5.428;2023-06-10T01:44:59;10.68;;;5.40;;
72115;SDS011;59991;52.140;5.428;2023-06-10T01:45:30;7.70;;;5.28;;
72115;SDS011;59991;52.140;5.428;2023-06-10T01:46:01;9.38;;;5.88;;
72115;SDS011;59991;52.140;5.428;2023-06-10T01:46:33;7.38;;;6.05;;
72115;SDS011;59991;52.140;5.428;2023-06-10T01:47:05;9.67;;;5.90;;
72115;SDS011;59991;52.140;5.428;2023-06-10T01:47:36;8.23;;;6.13;;
72115;SDS011;59991;52.140;5.428;2023-06-10T01:48:08;8.40;;;6.60;;
72115;SDS011;59991;52.140;5.428;2023-06-10T01:48:40;8.75;;;5.97;;
72115;SDS011;59991;52.140;5.428;2023-06-10T01:49:15;8.45;;;5.82;;
72115;SDS011;59991;52.140;5.428;2023-06-10T01:49:46;9.18;;;6.57;;
72115;SDS011;59991;52.140;5.428;2023-06-10T01:50:18;11.98;;;5.45;;
72115;SDS011;59991;52.140;5.428;2023-06-10T01:50:49;9.88;;;5.65;;
72115;SDS011;59991;52.140;5.428;2023-06-10T01:51:21;9.93;;;5.72;;
72115;SDS011;59991;52.140;5.428;2023-06-10T01:51:52;11.63;;;5.47;;
72115;SDS011;59991;52.140;5.428;2023-06-10T01:52:24;7.70;;;5.77;;
72115;SDS011;59991;52.140;5.428;2023-06-10T01:52:57;10.25;;;5.60;;
72115;SDS011;59991;52.140;5.428;2023-06-10T01:53:29;7.53;;;5.35;;
72115;SDS011;59991;52.140;5.428;2023-06-10T01:54:00;8.93;;;6.05;;
72115;SDS011;59991;52.140;5.428;2023-06-10T01:54:31;8.43;;;5.88;;
72115;SDS011;59991;52.140;5.428;2023-06-10T01:55:05;6.82;;;5.05;;
72115;SDS011;59991;52.140;5.428;2023-06-10T01:55:37;8.55;;;5.65;;
72115;SDS011;59991;52.140;5.428;2023-06-10T01:56:09;8.57;;;5.35;;
72115;SDS011;59991;52.140;5.428;2023-06-10T01:56:40;8.60;;;5.57;;
72115;SDS011;59991;52.140;5.428;2023-06-10T01:57:12;10.07;;;5.40;;
72115;SDS011;59991;52.140;5.428;2023-06-10T01:57:43;8.17;;;6.10;;
72115;SDS011;59991;52.140;5.428;2023-06-10T01:58:15;9.85;;;5.75;;
72115;SDS011;59991;52.140;5.428;2023-06-10T01:58:46;9.48;;;5.80;;
72115;SDS011;59991;52.140;5.428;2023-06-10T01:59:18;7.80;;;5.53;;
72115;SDS011;59991;52.140;5.428;2023-06-10T01:59:49;9.20;;;5.38;;
72115;SDS011;59991;52.140;5.428;2023-06-10T02:00:21;11.27;;;5.25;;
72115;SDS011;59991;52.140;5.428;2023-06-10T02:00:52;9.60;;;4.93;;
72115;SDS011;59991;52.140;5.428;2023-06-10T02:01:24;8.20;;;4.82;;
72115;SDS011;59991;52.140;5.428;2023-06-10T02:01:59;11.38;;;5.63;;
72115;SDS011;59991;52.140;5.428;2023-06-10T02:02:31;7.10;;;5.00;;
72115;SDS011;59991;52.140;5.428;2023-06-10T02:03:03;10.53;;;5.33;;
72115;SDS011;59991;52.140;5.428;2023-06-10T02:03:34;9.85;;;5.72;;
72115;SDS011;59991;52.140;5.428;2023-06-10T02:04:06;8.23;;;5.38;;
72115;SDS011;59991;52.140;5.428;2023-06-10T02:04:37;6.43;;;5.35;;
72115;SDS011;59991;52.140;5.428;2023-06-10T02:05:09;6.03;;;4.95;;
72115;SDS011;59991;52.140;5.428;2023-06-10T02:05:41;8.82;;;5.35;;
72115;SDS011;59991;52.140;5.428;2023-06-10T02:06:12;6.30;;;4.90;;
72115;SDS011;59991;52.140;5.428;2023-06-10T02:06:44;5.72;;;4.78;;
72115;SDS011;59991;52.140;5.428;2023-06-10T02:07:16;7.85;;;5.10;;
72115;SDS011;59991;52.140;5.428;2023-06-10T02:07:47;10.52;;;5.63;;
72115;SDS011;59991;52.140;5.428;2023-06-10T02:08:19;6.60;;;5.20;;
72115;SDS011;59991;52.140;5.428;2023-06-10T02:08:50;8.52;;;5.03;;
72115;SDS011;59991;52.140;5.428;2023-06-10T02:09:22;7.97;;;5.07;;
72115;SDS011;59991;52.140;5.428;2023-06-10T02:09:54;8.30;;;5.18;;
72115;SDS011;59991;52.140;5.428;2023-06-10T02:10:25;6.15;;;5.28;;
72115;SDS011;59991;52.140;5.428;2023-06-10T02:10:57;7.97;;;4.45;;
72115;SDS011;59991;52.140;5.428;2023-06-10T02:11:28;7.80;;;4.70;;
72115;SDS011;59991;52.140;5.428;2023-06-10T02:12:01;7.13;;;5.60;;
72115;SDS011;59991;52.140;5.428;2023-06-10T02:12:34;10.32;;;6.05;;
72115;SDS011;59991;52.140;5.428;2023-06-10T02:13:06;5.35;;;4.30;;
72115;SDS011;59991;52.140;5.428;2023-06-10T02:13:40;7.50;;;5.20;;
72115;SDS011;59991;52.140;5.428;2023-06-10T02:14:11;7.03;;;4.90;;
72115;SDS011;59991;52.140;5.428;2023-06-10T02:14:43;5.50;;;4.88;;
72115;SDS011;59991;52.140;5.428;2023-06-10T02:15:14;5.85;;;5.00;;
72115;SDS011;59991;52.140;5.428;2023-06-10T02:15:46;8.25;;;5.22;;
72115;SDS011;59991;52.140;5.428;2023-06-10T02:16:17;7.18;;;4.78;;
72115;SDS011;59991;52.140;5.428;2023-06-10T02:16:49;5.22;;;4.07;;
72115;SDS011;59991;52.140;5.428;2023-06-10T02:17:22;11.27;;;5.03;;
72115;SDS011;59991;52.140;5.428;2023-06-10T02:17:54;5.95;;;5.07;;
72115;SDS011;59991;52.140;5.428;2023-06-10T02:18:27;7.90;;;4.72;;
72115;SDS011;59991;52.140;5.428;2023-06-10T02:18:59;5.33;;;4.83;;
72115;SDS011;59991;52.140;5.428;2023-06-10T02:19:32;8.02;;;5.15;;
72115;SDS011;59991;52.140;5.428;2023-06-10T02:20:07;6.97;;;4.82;;
72115;SDS011;59991;52.140;5.428;2023-06-10T02:20:41;6.47;;;5.05;;
72115;SDS011;59991;52.140;5.428;2023-06-10T02:21:13;7.88;;;5.68;;
72115;SDS011;59991;52.140;5.428;2023-06-10T02:21:44;5.85;;;4.68;;
72115;SDS011;59991;52.140;5.428;2023-06-10T02:22:16;9.30;;;5.38;;
72115;SDS011;59991;52.140;5.428;2023-06-10T02:22:47;11.75;;;4.88;;
72115;SDS011;59991;52.140;5.428;2023-06-10T02:23:19;6.32;;;4.53;;
72115;SDS011;59991;52.140;5.428;2023-06-10T02:23:50;6.55;;;4.65;;
72115;SDS011;59991;52.140;5.428;2023-06-10T02:24:22;6.40;;;4.87;;
72115;SDS011;59991;52.140;5.428;2023-06-10T02:24:53;8.65;;;4.68;;
72115;SDS011;59991;52.140;5.428;2023-06-10T02:25:26;6.75;;;4.88;;
72115;SDS011;59991;52.140;5.428;2023-06-10T02:25:57;7.70;;;5.10;;
72115;SDS011;59991;52.140;5.428;2023-06-10T02:26:29;7.88;;;5.25;;
72115;SDS011;59991;52.140;5.428;2023-06-10T02:27:00;5.60;;;4.68;;
72115;SDS011;59991;52.140;5.428;2023-06-10T02:27:32;7.43;;;4.68;;
72115;SDS011;59991;52.140;5.428;2023-06-10T02:28:04;9.73;;;4.70;;
72115;SDS011;59991;52.140;5.428;2023-06-10T02:28:35;8.27;;;4.63;;
72115;SDS011;59991;52.140;5.428;2023-06-10T02:29:06;10.68;;;5.13;;
72115;SDS011;59991;52.140;5.428;2023-06-10T02:29:38;8.57;;;4.70;;
72115;SDS011;59991;52.140;5.428;2023-06-10T02:30:10;7.18;;;5.00;;
72115;SDS011;59991;52.140;5.428;2023-06-10T02:30:42;9.35;;;5.53;;
72115;SDS011;59991;52.140;5.428;2023-06-10T02:31:13;6.45;;;5.03;;
72115;SDS011;59991;52.140;5.428;2023-06-10T02:31:45;10.70;;;5.22;;
72115;SDS011;59991;52.140;5.428;2023-06-10T02:32:17;5.22;;;4.25;;
72115;SDS011;59991;52.140;5.428;2023-06-10T02:32:48;8.90;;;5.18;;
72115;SDS011;59991;52.140;5.428;2023-06-10T02:33:21;5.40;;;4.60;;
72115;SDS011;59991;52.140;5.428;2023-06-10T02:33:54;6.72;;;5.10;;
72115;SDS011;59991;52.140;5.428;2023-06-10T02:34:26;7.18;;;4.88;;
72115;SDS011;59991;52.140;5.428;2023-06-10T02:34:58;9.97;;;3.90;;
72115;SDS011;59991;52.140;5.428;2023-06-10T02:35:31;7.93;;;4.75;;
72115;SDS011;59991;52.140;5.428;2023-06-10T02:36:02;6.13;;;5.10;;
72115;SDS011;59991;52.140;5.428;2023-06-10T02:36:34;7.10;;;4.68;;
72115;SDS011;59991;52.140;5.428;2023-06-10T02:37:06;7.18;;;4.43;;
72115;SDS011;59991;52.140;5.428;2023-06-10T02:37:38;5.95;;;4.75;;
72115;SDS011;59991;52.140;5.428;2023-06-10T02:38:10;7.82;;;4.60;;
72115;SDS011;59991;52.140;5.428;2023-06-10T02:38:41;8.02;;;4.57;;
72115;SDS011;59991;52.140;5.428;2023-06-10T02:39:13;6.13;;;4.75;;
72115;SDS011;59991;52.140;5.428;2023-06-10T02:39:44;8.55;;;5.13;;
72115;SDS011;59991;52.140;5.428;2023-06-10T02:40:16;12.13;;;5.20;;
72115;SDS011;59991;52.140;5.428;2023-06-10T02:40:48;7.55;;;4.93;;
72115;SDS011;59991;52.140;5.428;2023-06-10T02:41:19;6.53;;;5.22;;
72115;SDS011;59991;52.140;5.428;2023-06-10T02:41:52;11.10;;;5.20;;
72115;SDS011;59991;52.140;5.428;2023-06-10T02:42:24;6.00;;;5.07;;
72115;SDS011;59991;52.140;5.428;2023-06-10T02:42:55;7.18;;;4.50;;
72115;SDS011;59991;52.140;5.428;2023-06-10T02:43:27;10.32;;;4.43;;
72115;SDS011;59991;52.140;5.428;2023-06-10T02:43:59;6.82;;;4.88;;
72115;SDS011;59991;52.140;5.428;2023-06-10T02:44:30;8.20;;;5.38;;
72115;SDS011;59991;52.140;5.428;2023-06-10T02:45:02;6.00;;;4.90;;
72115;SDS011;59991;52.140;5.428;2023-06-10T02:45:34;5.87;;;4.47;;
72115;SDS011;59991;52.140;5.428;2023-06-10T02:46:05;6.88;;;4.20;;
72115;SDS011;59991;52.140;5.428;2023-06-10T02:46:37;6.72;;;4.75;;
72115;SDS011;59991;52.140;5.428;2023-06-10T02:47:08;7.35;;;5.22;;
72115;SDS011;59991;52.140;5.428;2023-06-10T02:47:41;7.85;;;5.07;;
72115;SDS011;59991;52.140;5.428;2023-06-10T02:48:12;6.57;;;4.45;;
72115;SDS011;59991;52.140;5.428;2023-06-10T02:48:45;7.35;;;4.93;;
72115;SDS011;59991;52.140;5.428;2023-06-10T02:49:16;7.93;;;4.50;;
72115;SDS011;59991;52.140;5.428;2023-06-10T02:49:48;8.48;;;5.35;;
72115;SDS011;59991;52.140;5.428;2023-06-10T02:50:19;5.55;;;4.60;;
72115;SDS011;59991;52.140;5.428;2023-06-10T02:50:50;9.90;;;4.63;;
72115;SDS011;59991;52.140;5.428;2023-06-10T02:51:22;12.50;;;5.28;;
72115;SDS011;59991;52.140;5.428;2023-06-10T02:51:54;7.82;;;4.93;;
72115;SDS011;59991;52.140;5.428;2023-06-10T02:52:25;6.93;;;5.05;;
72115;SDS011;59991;52.140;5.428;2023-06-10T02:52:57;6.47;;;5.40;;
72115;SDS011;59991;52.140;5.428;2023-06-10T02:53:28;6.20;;;4.75;;
72115;SDS011;59991;52.140;5.428;2023-06-10T02:53:59;6.10;;;5.05;;
72115;SDS011;59991;52.140;5.428;2023-06-10T02:54:31;6.53;;;5.43;;
72115;SDS011;59991;52.140;5.428;2023-06-10T02:55:03;8.13;;;5.13;;
72115;SDS011;59991;52.140;5.428;2023-06-10T02:55:34;8.95;;;5.60;;
72115;SDS011;59991;52.140;5.428;2023-06-10T02:56:06;8.27;;;5.03;;
72115;SDS011;59991;52.140;5.428;2023-06-10T02:56:38;6.97;;;4.88;;
72115;SDS011;59991;52.140;5.428;2023-06-10T02:57:13;4.82;;;4.32;;
72115;SDS011;59991;52.140;5.428;2023-06-10T02:57:45;6.45;;;5.10;;
72115;SDS011;59991;52.140;5.428;2023-06-10T02:58:16;5.60;;;4.22;;
72115;SDS011;59991;52.140;5.428;2023-06-10T02:58:48;7.15;;;5.18;;
72115;SDS011;59991;52.140;5.428;2023-06-10T02:59:20;5.45;;;4.95;;
72115;SDS011;59991;52.140;5.428;2023-06-10T02:59:52;5.85;;;4.68;;
72115;SDS011;59991;52.140;5.428;2023-06-10T03:00:24;7.68;;;4.90;;
72115;SDS011;59991;52.140;5.428;2023-06-10T03:00:56;5.68;;;4.72;;
72115;SDS011;59991;52.140;5.428;2023-06-10T03:01:27;6.33;;;5.23;;
72115;SDS011;59991;52.140;5.428;2023-06-10T03:01:59;7.80;;;5.50;;
72115;SDS011;59991;52.140;5.428;2023-06-10T03:02:32;5.75;;;4.93;;
72115;SDS011;59991;52.140;5.428;2023-06-10T03:03:08;6.60;;;4.75;;
72115;SDS011;59991;52.140;5.428;2023-06-10T03:03:39;6.00;;;4.78;;
72115;SDS011;59991;52.140;5.428;2023-06-10T03:04:14;9.93;;;5.57;;
72115;SDS011;59991;52.140;5.428;2023-06-10T03:04:45;5.65;;;4.50;;
72115;SDS011;59991;52.140;5.428;2023-06-10T03:05:18;6.72;;;5.10;;
72115;SDS011;59991;52.140;5.428;2023-06-10T03:05:50;6.75;;;4.88;;
72115;SDS011;59991;52.140;5.428;2023-06-10T03:06:21;5.85;;;4.72;;
72115;SDS011;59991;52.140;5.428;2023-06-10T03:06:55;4.83;;;4.23;;
72115;SDS011;59991;52.140;5.428;2023-06-10T03:07:27;8.00;;;5.03;;
72115;SDS011;59991;52.140;5.428;2023-06-10T03:07:58;6.28;;;5.40;;
72115;SDS011;59991;52.140;5.428;2023-06-10T03:08:29;5.63;;;4.43;;
72115;SDS011;59991;52.140;5.428;2023-06-10T03:09:02;9.40;;;5.13;;
72115;SDS011;59991;52.140;5.428;2023-06-10T03:09:35;8.20;;;4.85;;
72115;SDS011;59991;52.140;5.428;2023-06-10T03:10:07;5.15;;;4.38;;
72115;SDS011;59991;52.140;5.428;2023-06-10T03:10:38;9.25;;;4.90;;
72115;SDS011;59991;52.140;5.428;2023-06-10T03:11:10;7.13;;;4.50;;
72115;SDS011;59991;52.140;5.428;2023-06-10T03:11:41;7.88;;;4.43;;
72115;SDS011;59991;52.140;5.428;2023-06-10T03:12:12;7.83;;;5.10;;
72115;SDS011;59991;52.140;5.428;2023-06-10T03:12:44;7.05;;;4.72;;
72115;SDS011;59991;52.140;5.428;2023-06-10T03:13:15;10.70;;;5.15;;
72115;SDS011;59991;52.140;5.428;2023-06-10T03:13:47;5.03;;;4.53;;
72115;SDS011;59991;52.140;5.428;2023-06-10T03:14:19;6.13;;;4.78;;
72115;SDS011;59991;52.140;5.428;2023-06-10T03:14:50;9.18;;;4.82;;
72115;SDS011;59991;52.140;5.428;2023-06-10T03:15:22;5.97;;;4.10;;
72115;SDS011;59991;52.140;5.428;2023-06-10T03:15:53;9.30;;;5.35;;
72115;SDS011;59991;52.140;5.428;2023-06-10T03:16:25;5.43;;;4.85;;
72115;SDS011;59991;52.140;5.428;2023-06-10T03:16:57;6.20;;;4.60;;
72115;SDS011;59991;52.140;5.428;2023-06-10T03:17:30;5.70;;;4.70;;
72115;SDS011;59991;52.140;5.428;2023-06-10T03:18:02;6.07;;;5.28;;